sensor_id;sensor_type;location;lat;lon;timestamp;P1;durP1;ratioP1;P2;durP2;ratioP2
16320;SDS011;8269;50.990;4.494;2022-10-15T00:02:04;37.17;;;27.87;;
16320;SDS011;8269;50.990;4.494;2022-10-15T00:04:31;35.27;;;28.43;;
16320;SDS011;8269;50.990;4.494;2022-10-15T00:06:57;38.83;;;29.07;;
16320;SDS011;8269;50.990;4.494;2022-10-15T00:09:23;40.22;;;29.40;;
16320;SDS011;8269;50.990;4.494;2022-10-15T00:11:49;42.23;;;31.77;;
16320;SDS011;8269;50.990;4.494;2022-10-15T00:14:15;40.90;;;31.27;;
16320;SDS011;8269;50.990;4.494;2022-10-15T00:16:40;43.53;;;32.13;;
16320;SDS011;8269;50.990;4.494;2022-10-15T00:19:06;41.03;;;32.50;;
16320;SDS011;8269;50.990;4.494;2022-10-15T00:21:32;42.60;;;34.23;;
16320;SDS011;8269;50.990;4.494;2022-10-15T00:23:57;42.43;;;34.77;;
16320;SDS011;8269;50.990;4.494;2022-10-15T00:26:24;42.60;;;35.80;;
16320;SDS011;8269;50.990;4.494;2022-10-15T00:28:51;47.50;;;36.30;;
16320;SDS011;8269;50.990;4.494;2022-10-15T00:31:18;45.50;;;35.60;;
16320;SDS011;8269;50.990;4.494;2022-10-15T00:33:47;43.37;;;35.47;;
16320;SDS011;8269;50.990;4.494;2022-10-15T00:36:16;42.93;;;34.57;;
16320;SDS011;8269;50.990;4.494;2022-10-15T00:38:43;49.57;;;36.83;;
16320;SDS011;8269;50.990;4.494;2022-10-15T00:41:13;44.67;;;35.72;;
16320;SDS011;8269;50.990;4.494;2022-10-15T00:46:14;45.67;;;36.17;;
16320;SDS011;8269;50.990;4.494;2022-10-15T00:48:40;51.20;;;38.83;;
16320;SDS011;8269;50.990;4.494;2022-10-15T00:51:06;46.70;;;37.53;;
16320;SDS011;8269;50.990;4.494;2022-10-15T00:53:32;47.23;;;38.57;;
16320;SDS011;8269;50.990;4.494;2022-10-15T00:55:58;49.43;;;38.93;;
16320;SDS011;8269;50.990;4.494;2022-10-15T00:58:25;41.97;;;36.47;;
16320;SDS011;8269;50.990;4.494;2022-10-15T01:00:55;44.27;;;36.63;;
16320;SDS011;8269;50.990;4.494;2022-10-15T01:03:21;48.53;;;39.30;;
16320;SDS011;8269;50.990;4.494;2022-10-15T01:05:48;44.43;;;37.27;;
16320;SDS011;8269;50.990;4.494;2022-10-15T01:08:16;46.93;;;38.67;;
16320;SDS011;8269;50.990;4.494;2022-10-15T01:13:37;47.20;;;38.90;;
16320;SDS011;8269;50.990;4.494;2022-10-15T01:16:23;47.43;;;39.77;;
16320;SDS011;8269;50.990;4.494;2022-10-15T01:24:41;49.33;;;39.67;;
16320;SDS011;8269;50.990;4.494;2022-10-15T01:27:49;50.10;;;40.08;;
16320;SDS011;8269;50.990;4.494;2022-10-15T01:32:52;49.00;;;40.33;;
16320;SDS011;8269;50.990;4.494;2022-10-15T01:36:21;51.93;;;40.97;;
16320;SDS011;8269;50.990;4.494;2022-10-15T01:38:38;53.60;;;41.38;;
16320;SDS011;8269;50.990;4.494;2022-10-15T01:44:01;46.73;;;39.70;;
16320;SDS011;8269;50.990;4.494;2022-10-15T01:46:41;47.97;;;39.53;;
16320;SDS011;8269;50.990;4.494;2022-10-15T01:49:14;48.80;;;40.30;;
16320;SDS011;8269;50.990;4.494;2022-10-15T01:51:42;49.60;;;40.07;;
16320;SDS011;8269;50.990;4.494;2022-10-15T01:54:10;47.43;;;41.03;;
16320;SDS011;8269;50.990;4.494;2022-10-15T01:56:38;47.13;;;39.13;;
16320;SDS011;8269;50.990;4.494;2022-10-15T01:59:10;47.07;;;39.53;;
16320;SDS011;8269;50.990;4.494;2022-10-15T02:01:36;46.00;;;38.97;;
16320;SDS011;8269;50.990;4.494;2022-10-15T02:04:17;47.13;;;39.43;;
16320;SDS011;8269;50.990;4.494;2022-10-15T02:07:01;48.60;;;39.22;;
16320;SDS011;8269;50.990;4.494;2022-10-15T02:12:41;48.77;;;38.87;;
16320;SDS011;8269;50.990;4.494;2022-10-15T02:18:20;46.07;;;37.70;;
16320;SDS011;8269;50.990;4.494;2022-10-15T02:21:11;43.70;;;36.90;;
16320;SDS011;8269;50.990;4.494;2022-10-15T02:23:52;45.73;;;38.53;;
16320;SDS011;8269;50.990;4.494;2022-10-15T02:26:23;44.47;;;37.33;;
16320;SDS011;8269;50.990;4.494;2022-10-15T02:28:53;45.87;;;38.23;;
16320;SDS011;8269;50.990;4.494;2022-10-15T02:31:22;44.10;;;37.03;;
16320;SDS011;8269;50.990;4.494;2022-10-15T02:33:49;49.37;;;38.43;;
16320;SDS011;8269;50.990;4.494;2022-10-15T02:36:19;46.13;;;38.10;;
16320;SDS011;8269;50.990;4.494;2022-10-15T02:38:45;47.57;;;37.10;;
16320;SDS011;8269;50.990;4.494;2022-10-15T02:41:13;46.23;;;37.30;;
16320;SDS011;8269;50.990;4.494;2022-10-15T02:43:40;48.03;;;37.73;;
16320;SDS011;8269;50.990;4.494;2022-10-15T02:46:05;50.90;;;39.00;;
16320;SDS011;8269;50.990;4.494;2022-10-15T02:48:33;49.70;;;39.67;;
16320;SDS011;8269;50.990;4.494;2022-10-15T02:50:58;48.03;;;36.90;;
16320;SDS011;8269;50.990;4.494;2022-10-15T02:53:24;48.73;;;37.03;;
16320;SDS011;8269;50.990;4.494;2022-10-15T02:55:49;45.33;;;35.50;;
16320;SDS011;8269;50.990;4.494;2022-10-15T02:58:15;48.37;;;35.87;;
16320;SDS011;8269;50.990;4.494;2022-10-15T03:00:40;45.50;;;34.80;;
16320;SDS011;8269;50.990;4.494;2022-10-15T03:03:06;45.57;;;35.37;;
16320;SDS011;8269;50.990;4.494;2022-10-15T03:05:32;46.83;;;35.93;;
16320;SDS011;8269;50.990;4.494;2022-10-15T03:07:58;46.57;;;34.30;;
16320;SDS011;8269;50.990;4.494;2022-10-15T03:10:24;45.67;;;34.00;;
16320;SDS011;8269;50.990;4.494;2022-10-15T03:12:50;44.23;;;33.93;;
16320;SDS011;8269;50.990;4.494;2022-10-15T03:15:16;45.03;;;33.37;;
16320;SDS011;8269;50.990;4.494;2022-10-15T03:17:42;45.93;;;34.10;;
16320;SDS011;8269;50.990;4.494;2022-10-15T03:20:07;44.47;;;33.60;;
16320;SDS011;8269;50.990;4.494;2022-10-15T03:22:33;45.93;;;34.33;;
16320;SDS011;8269;50.990;4.494;2022-10-15T03:24:59;46.80;;;34.17;;
16320;SDS011;8269;50.990;4.494;2022-10-15T03:27:24;46.57;;;34.27;;
16320;SDS011;8269;50.990;4.494;2022-10-15T03:29:50;43.30;;;33.20;;
16320;SDS011;8269;50.990;4.494;2022-10-15T03:32:16;44.00;;;33.90;;
16320;SDS011;8269;50.990;4.494;2022-10-15T03:34:41;45.00;;;33.17;;
16320;SDS011;8269;50.990;4.494;2022-10-15T03:37:07;44.13;;;33.10;;
16320;SDS011;8269;50.990;4.494;2022-10-15T03:39:32;43.17;;;33.13;;
16320;SDS011;8269;50.990;4.494;2022-10-15T03:41:58;39.97;;;31.70;;
16320;SDS011;8269;50.990;4.494;2022-10-15T03:44:24;43.80;;;32.25;;
16320;SDS011;8269;50.990;4.494;2022-10-15T03:46:49;41.83;;;32.00;;
16320;SDS011;8269;50.990;4.494;2022-10-15T03:49:15;38.67;;;30.37;;
16320;SDS011;8269;50.990;4.494;2022-10-15T03:51:41;39.37;;;30.57;;
16320;SDS011;8269;50.990;4.494;2022-10-15T03:54:06;41.73;;;31.03;;
16320;SDS011;8269;50.990;4.494;2022-10-15T03:56:32;40.27;;;31.07;;
16320;SDS011;8269;50.990;4.494;2022-10-15T03:58:58;38.73;;;31.30;;
16320;SDS011;8269;50.990;4.494;2022-10-15T04:01:23;40.50;;;31.10;;
16320;SDS011;8269;50.990;4.494;2022-10-15T04:03:52;39.27;;;31.17;;
16320;SDS011;8269;50.990;4.494;2022-10-15T04:06:18;46.00;;;33.80;;
16320;SDS011;8269;50.990;4.494;2022-10-15T04:08:44;44.50;;;32.67;;
16320;SDS011;8269;50.990;4.494;2022-10-15T04:11:10;47.17;;;32.47;;
16320;SDS011;8269;50.990;4.494;2022-10-15T04:13:36;44.20;;;33.33;;
16320;SDS011;8269;50.990;4.494;2022-10-15T04:16:04;44.23;;;31.33;;
16320;SDS011;8269;50.990;4.494;2022-10-15T04:18:31;44.87;;;33.50;;
16320;SDS011;8269;50.990;4.494;2022-10-15T04:20:59;44.57;;;32.80;;
16320;SDS011;8269;50.990;4.494;2022-10-15T04:23:25;48.40;;;34.10;;
16320;SDS011;8269;50.990;4.494;2022-10-15T04:25:51;41.63;;;31.90;;
16320;SDS011;8269;50.990;4.494;2022-10-15T04:28:17;47.47;;;33.87;;
16320;SDS011;8269;50.990;4.494;2022-10-15T04:30:42;47.17;;;33.93;;
16320;SDS011;8269;50.990;4.494;2022-10-15T04:33:08;47.40;;;34.07;;
16320;SDS011;8269;50.990;4.494;2022-10-15T04:35:34;51.10;;;34.43;;
16320;SDS011;8269;50.990;4.494;2022-10-15T04:38:00;48.20;;;34.10;;
16320;SDS011;8269;50.990;4.494;2022-10-15T04:40:26;45.10;;;33.23;;
16320;SDS011;8269;50.990;4.494;2022-10-15T04:42:51;42.33;;;32.60;;
16320;SDS011;8269;50.990;4.494;2022-10-15T04:45:17;44.77;;;33.07;;
16320;SDS011;8269;50.990;4.494;2022-10-15T04:47:43;45.30;;;33.00;;
16320;SDS011;8269;50.990;4.494;2022-10-15T04:50:09;43.80;;;32.70;;
16320;SDS011;8269;50.990;4.494;2022-10-15T04:52:35;44.67;;;33.13;;
16320;SDS011;8269;50.990;4.494;2022-10-15T04:55:00;46.50;;;32.33;;
16320;SDS011;8269;50.990;4.494;2022-10-15T04:57:28;42.30;;;31.67;;
16320;SDS011;8269;50.990;4.494;2022-10-15T04:59:54;42.53;;;30.87;;
16320;SDS011;8269;50.990;4.494;2022-10-15T05:02:20;41.13;;;30.97;;
16320;SDS011;8269;50.990;4.494;2022-10-15T05:04:46;40.73;;;31.43;;
16320;SDS011;8269;50.990;4.494;2022-10-15T05:07:11;39.87;;;30.60;;
16320;SDS011;8269;50.990;4.494;2022-10-15T05:09:37;42.27;;;29.87;;
16320;SDS011;8269;50.990;4.494;2022-10-15T05:12:02;40.27;;;30.30;;
16320;SDS011;8269;50.990;4.494;2022-10-15T05:14:28;38.90;;;30.33;;
16320;SDS011;8269;50.990;4.494;2022-10-15T05:16:54;40.33;;;30.00;;
16320;SDS011;8269;50.990;4.494;2022-10-15T05:19:19;37.83;;;29.20;;
16320;SDS011;8269;50.990;4.494;2022-10-15T05:21:45;37.33;;;28.57;;
16320;SDS011;8269;50.990;4.494;2022-10-15T05:24:10;39.43;;;28.93;;
16320;SDS011;8269;50.990;4.494;2022-10-15T05:26:36;37.00;;;28.00;;
16320;SDS011;8269;50.990;4.494;2022-10-15T05:29:02;33.67;;;26.57;;
16320;SDS011;8269;50.990;4.494;2022-10-15T05:31:28;35.37;;;27.60;;
16320;SDS011;8269;50.990;4.494;2022-10-15T05:33:55;36.07;;;26.63;;
16320;SDS011;8269;50.990;4.494;2022-10-15T05:36:22;34.97;;;26.37;;
16320;SDS011;8269;50.990;4.494;2022-10-15T05:38:50;33.20;;;26.07;;
16320;SDS011;8269;50.990;4.494;2022-10-15T05:41:17;34.17;;;26.37;;
16320;SDS011;8269;50.990;4.494;2022-10-15T05:43:47;35.17;;;24.57;;
16320;SDS011;8269;50.990;4.494;2022-10-15T05:46:13;31.93;;;23.87;;
16320;SDS011;8269;50.990;4.494;2022-10-15T05:48:39;31.97;;;23.73;;
16320;SDS011;8269;50.990;4.494;2022-10-15T05:51:06;30.13;;;22.13;;
16320;SDS011;8269;50.990;4.494;2022-10-15T05:53:34;27.77;;;21.57;;
16320;SDS011;8269;50.990;4.494;2022-10-15T05:56:01;27.70;;;21.05;;
16320;SDS011;8269;50.990;4.494;2022-10-15T05:58:27;24.50;;;19.80;;
16320;SDS011;8269;50.990;4.494;2022-10-15T06:00:57;25.30;;;19.07;;
16320;SDS011;8269;50.990;4.494;2022-10-15T06:03:24;24.37;;;19.40;;
16320;SDS011;8269;50.990;4.494;2022-10-15T06:05:51;26.20;;;18.77;;
16320;SDS011;8269;50.990;4.494;2022-10-15T06:08:17;26.23;;;19.67;;
16320;SDS011;8269;50.990;4.494;2022-10-15T06:10:44;24.77;;;19.03;;
16320;SDS011;8269;50.990;4.494;2022-10-15T06:13:10;23.20;;;18.57;;
16320;SDS011;8269;50.990;4.494;2022-10-15T06:15:39;24.97;;;18.30;;
16320;SDS011;8269;50.990;4.494;2022-10-15T06:18:07;23.87;;;17.40;;
16320;SDS011;8269;50.990;4.494;2022-10-15T06:20:33;22.60;;;15.80;;
16320;SDS011;8269;50.990;4.494;2022-10-15T06:22:59;23.00;;;16.93;;
16320;SDS011;8269;50.990;4.494;2022-10-15T06:25:26;25.37;;;16.47;;
16320;SDS011;8269;50.990;4.494;2022-10-15T06:27:52;20.57;;;15.80;;
16320;SDS011;8269;50.990;4.494;2022-10-15T06:30:18;21.27;;;14.93;;
16320;SDS011;8269;50.990;4.494;2022-10-15T06:32:48;20.73;;;15.03;;
16320;SDS011;8269;50.990;4.494;2022-10-15T06:35:15;16.73;;;12.90;;
16320;SDS011;8269;50.990;4.494;2022-10-15T06:37:42;16.93;;;12.97;;
16320;SDS011;8269;50.990;4.494;2022-10-15T06:40:08;18.30;;;12.63;;
16320;SDS011;8269;50.990;4.494;2022-10-15T06:42:34;17.17;;;12.20;;
16320;SDS011;8269;50.990;4.494;2022-10-15T06:45:00;14.40;;;11.40;;
16320;SDS011;8269;50.990;4.494;2022-10-15T06:47:26;15.43;;;11.73;;
16320;SDS011;8269;50.990;4.494;2022-10-15T06:49:51;15.30;;;11.77;;
16320;SDS011;8269;50.990;4.494;2022-10-15T06:52:17;16.40;;;12.18;;
16320;SDS011;8269;50.990;4.494;2022-10-15T06:54:43;16.37;;;11.57;;
16320;SDS011;8269;50.990;4.494;2022-10-15T06:57:08;17.33;;;11.67;;
16320;SDS011;8269;50.990;4.494;2022-10-15T06:59:34;14.03;;;10.27;;
16320;SDS011;8269;50.990;4.494;2022-10-15T07:02:00;15.77;;;10.23;;
16320;SDS011;8269;50.990;4.494;2022-10-15T07:04:25;15.00;;;10.27;;
16320;SDS011;8269;50.990;4.494;2022-10-15T07:06:51;14.73;;;10.70;;
16320;SDS011;8269;50.990;4.494;2022-10-15T07:09:16;13.10;;;10.17;;
16320;SDS011;8269;50.990;4.494;2022-10-15T07:11:43;12.80;;;10.10;;
16320;SDS011;8269;50.990;4.494;2022-10-15T07:14:08;14.25;;;9.77;;
16320;SDS011;8269;50.990;4.494;2022-10-15T07:16:34;15.98;;;10.38;;
16320;SDS011;8269;50.990;4.494;2022-10-15T07:19:01;15.27;;;10.13;;
16320;SDS011;8269;50.990;4.494;2022-10-15T07:21:27;13.32;;;9.55;;
16320;SDS011;8269;50.990;4.494;2022-10-15T07:23:52;14.88;;;10.18;;
16320;SDS011;8269;50.990;4.494;2022-10-15T07:26:18;13.00;;;9.38;;
16320;SDS011;8269;50.990;4.494;2022-10-15T07:28:43;14.50;;;9.63;;
16320;SDS011;8269;50.990;4.494;2022-10-15T07:31:09;19.70;;;12.07;;
16320;SDS011;8269;50.990;4.494;2022-10-15T07:33:35;23.48;;;13.48;;
16320;SDS011;8269;50.990;4.494;2022-10-15T07:36:05;16.90;;;9.97;;
16320;SDS011;8269;50.990;4.494;2022-10-15T07:38:33;13.43;;;9.53;;
16320;SDS011;8269;50.990;4.494;2022-10-15T07:40:59;11.53;;;9.00;;
16320;SDS011;8269;50.990;4.494;2022-10-15T07:43:26;11.80;;;8.50;;
16320;SDS011;8269;50.990;4.494;2022-10-15T07:45:52;11.30;;;7.73;;
16320;SDS011;8269;50.990;4.494;2022-10-15T07:48:17;10.23;;;7.95;;
16320;SDS011;8269;50.990;4.494;2022-10-15T07:50:43;12.23;;;7.50;;
16320;SDS011;8269;50.990;4.494;2022-10-15T07:53:09;10.18;;;7.22;;
16320;SDS011;8269;50.990;4.494;2022-10-15T07:55:35;11.18;;;7.32;;
16320;SDS011;8269;50.990;4.494;2022-10-15T07:58:00;9.27;;;7.00;;
16320;SDS011;8269;50.990;4.494;2022-10-15T08:00:29;9.95;;;6.70;;
16320;SDS011;8269;50.990;4.494;2022-10-15T08:02:56;10.20;;;6.30;;
16320;SDS011;8269;50.990;4.494;2022-10-15T08:05:21;7.15;;;5.25;;
16320;SDS011;8269;50.990;4.494;2022-10-15T08:07:47;7.30;;;5.60;;
16320;SDS011;8269;50.990;4.494;2022-10-15T08:10:12;7.07;;;5.25;;
16320;SDS011;8269;50.990;4.494;2022-10-15T08:12:38;7.60;;;5.75;;
16320;SDS011;8269;50.990;4.494;2022-10-15T08:15:04;7.15;;;4.80;;
16320;SDS011;8269;50.990;4.494;2022-10-15T08:17:30;6.55;;;4.75;;
16320;SDS011;8269;50.990;4.494;2022-10-15T08:19:56;6.22;;;4.50;;
16320;SDS011;8269;50.990;4.494;2022-10-15T08:22:22;6.13;;;4.20;;
16320;SDS011;8269;50.990;4.494;2022-10-15T08:24:47;5.53;;;4.20;;
16320;SDS011;8269;50.990;4.494;2022-10-15T08:27:13;6.32;;;3.90;;
16320;SDS011;8269;50.990;4.494;2022-10-15T08:29:39;5.88;;;3.88;;
16320;SDS011;8269;50.990;4.494;2022-10-15T08:32:04;6.00;;;3.70;;
16320;SDS011;8269;50.990;4.494;2022-10-15T08:34:30;4.60;;;2.90;;
16320;SDS011;8269;50.990;4.494;2022-10-15T08:36:56;5.43;;;3.38;;
16320;SDS011;8269;50.990;4.494;2022-10-15T08:39:21;5.35;;;3.63;;
16320;SDS011;8269;50.990;4.494;2022-10-15T08:41:48;4.22;;;3.05;;
16320;SDS011;8269;50.990;4.494;2022-10-15T08:44:20;3.70;;;2.60;;
16320;SDS011;8269;50.990;4.494;2022-10-15T08:46:58;4.93;;;2.90;;
16320;SDS011;8269;50.990;4.494;2022-10-15T08:49:47;4.07;;;2.58;;
16320;SDS011;8269;50.990;4.494;2022-10-15T08:55:07;4.55;;;3.30;;
16320;SDS011;8269;50.990;4.494;2022-10-15T09:02:53;4.60;;;1.90;;
16320;SDS011;8269;50.990;4.494;2022-10-15T09:05:24;2.63;;;1.60;;
16320;SDS011;8269;50.990;4.494;2022-10-15T09:07:52;2.88;;;1.90;;
16320;SDS011;8269;50.990;4.494;2022-10-15T09:10:52;3.08;;;1.60;;
16320;SDS011;8269;50.990;4.494;2022-10-15T09:13:30;5.40;;;1.75;;
16320;SDS011;8269;50.990;4.494;2022-10-15T09:16:15;3.00;;;1.40;;
16320;SDS011;8269;50.990;4.494;2022-10-15T09:18:53;4.28;;;1.35;;
16320;SDS011;8269;50.990;4.494;2022-10-15T09:21:21;2.67;;;1.50;;
16320;SDS011;8269;50.990;4.494;2022-10-15T09:23:49;3.35;;;1.67;;
16320;SDS011;8269;50.990;4.494;2022-10-15T09:26:21;3.70;;;1.73;;
16320;SDS011;8269;50.990;4.494;2022-10-15T09:29:16;3.03;;;1.55;;
16320;SDS011;8269;50.990;4.494;2022-10-15T09:31:49;3.70;;;1.27;;
16320;SDS011;8269;50.990;4.494;2022-10-15T09:37:14;2.40;;;1.10;;
16320;SDS011;8269;50.990;4.494;2022-10-15T09:44:58;1.67;;;0.88;;
16320;SDS011;8269;50.990;4.494;2022-10-15T09:47:28;1.63;;;1.05;;
16320;SDS011;8269;50.990;4.494;2022-10-15T09:49:55;2.20;;;1.30;;
16320;SDS011;8269;50.990;4.494;2022-10-15T09:57:52;5.03;;;1.40;;
16320;SDS011;8269;50.990;4.494;2022-10-15T10:00:19;3.10;;;1.20;;
16320;SDS011;8269;50.990;4.494;2022-10-15T10:03:02;2.10;;;1.40;;
16320;SDS011;8269;50.990;4.494;2022-10-15T10:05:31;1.73;;;1.30;;
16320;SDS011;8269;50.990;4.494;2022-10-15T10:08:09;2.58;;;1.55;;
16320;SDS011;8269;50.990;4.494;2022-10-15T10:10:59;2.20;;;1.30;;
16320;SDS011;8269;50.990;4.494;2022-10-15T10:13:33;4.43;;;1.70;;
16320;SDS011;8269;50.990;4.494;2022-10-15T10:16:04;1.77;;;1.33;;
16320;SDS011;8269;50.990;4.494;2022-10-15T10:18:33;1.80;;;1.30;;
16320;SDS011;8269;50.990;4.494;2022-10-15T10:21:02;4.60;;;1.50;;
16320;SDS011;8269;50.990;4.494;2022-10-15T10:23:31;3.15;;;1.58;;
16320;SDS011;8269;50.990;4.494;2022-10-15T10:26:03;2.47;;;1.42;;
16320;SDS011;8269;50.990;4.494;2022-10-15T10:28:52;4.43;;;1.80;;
16320;SDS011;8269;50.990;4.494;2022-10-15T10:31:26;2.65;;;1.55;;
16320;SDS011;8269;50.990;4.494;2022-10-15T10:33:54;2.80;;;1.58;;
16320;SDS011;8269;50.990;4.494;2022-10-15T10:36:29;3.13;;;1.67;;
16320;SDS011;8269;50.990;4.494;2022-10-15T10:44:24;3.72;;;1.80;;
16320;SDS011;8269;50.990;4.494;2022-10-15T10:47:03;3.17;;;1.90;;
16320;SDS011;8269;50.990;4.494;2022-10-15T10:49:33;2.38;;;1.65;;
16320;SDS011;8269;50.990;4.494;2022-10-15T10:52:01;3.75;;;2.00;;
16320;SDS011;8269;50.990;4.494;2022-10-15T10:54:27;3.05;;;1.90;;
16320;SDS011;8269;50.990;4.494;2022-10-15T10:56:54;3.13;;;1.77;;
16320;SDS011;8269;50.990;4.494;2022-10-15T11:01:57;2.10;;;1.67;;
16320;SDS011;8269;50.990;4.494;2022-10-15T11:04:29;2.10;;;1.50;;
16320;SDS011;8269;50.990;4.494;2022-10-15T11:21:38;2.35;;;1.88;;
16320;SDS011;8269;50.990;4.494;2022-10-15T11:24:15;4.60;;;2.13;;
16320;SDS011;8269;50.990;4.494;2022-10-15T11:29:26;3.25;;;2.10;;
16320;SDS011;8269;50.990;4.494;2022-10-15T11:43:27;1.67;;;1.45;;
16320;SDS011;8269;50.990;4.494;2022-10-15T11:49:22;3.42;;;1.40;;
16320;SDS011;8269;50.990;4.494;2022-10-15T11:54:44;4.38;;;1.40;;
16320;SDS011;8269;50.990;4.494;2022-10-15T11:57:20;3.92;;;1.40;;
16320;SDS011;8269;50.990;4.494;2022-10-15T11:59:53;2.30;;;1.13;;
16320;SDS011;8269;50.990;4.494;2022-10-15T12:04:59;2.30;;;1.25;;
16320;SDS011;8269;50.990;4.494;2022-10-15T12:07:32;2.30;;;1.20;;
16320;SDS011;8269;50.990;4.494;2022-10-15T12:10:08;3.42;;;1.30;;
16320;SDS011;8269;50.990;4.494;2022-10-15T12:15:48;2.17;;;1.17;;
16320;SDS011;8269;50.990;4.494;2022-10-15T12:18:30;3.08;;;1.20;;
16320;SDS011;8269;50.990;4.494;2022-10-15T12:23:55;1.35;;;1.10;;
16320;SDS011;8269;50.990;4.494;2022-10-15T12:28:51;2.22;;;1.10;;
16320;SDS011;8269;50.990;4.494;2022-10-15T12:31:18;3.05;;;1.25;;
16320;SDS011;8269;50.990;4.494;2022-10-15T12:33:52;1.70;;;1.45;;
16320;SDS011;8269;50.990;4.494;2022-10-15T12:39:03;0.80;;;0.80;;
16320;SDS011;8269;50.990;4.494;2022-10-15T12:41:41;1.85;;;0.70;;
16320;SDS011;8269;50.990;4.494;2022-10-15T12:46:51;1.52;;;0.70;;
16320;SDS011;8269;50.990;4.494;2022-10-15T12:51:57;1.10;;;0.80;;
16320;SDS011;8269;50.990;4.494;2022-10-15T13:00:46;5.13;;;0.80;;
16320;SDS011;8269;50.990;4.494;2022-10-15T13:02:47;4.78;;;0.85;;
16320;SDS011;8269;50.990;4.494;2022-10-15T13:05:23;2.38;;;0.63;;
16320;SDS011;8269;50.990;4.494;2022-10-15T13:07:52;2.78;;;0.70;;
16320;SDS011;8269;50.990;4.494;2022-10-15T13:10:21;2.58;;;0.70;;
16320;SDS011;8269;50.990;4.494;2022-10-15T13:12:52;4.35;;;0.90;;
16320;SDS011;8269;50.990;4.494;2022-10-15T13:15:22;2.33;;;0.70;;
16320;SDS011;8269;50.990;4.494;2022-10-15T13:17:50;4.57;;;0.75;;
16320;SDS011;8269;50.990;4.494;2022-10-15T13:20:37;1.58;;;0.75;;
16320;SDS011;8269;50.990;4.494;2022-10-15T13:25:41;3.85;;;1.00;;
16320;SDS011;8269;50.990;4.494;2022-10-15T13:28:27;4.72;;;1.05;;
16320;SDS011;8269;50.990;4.494;2022-10-15T13:30:58;3.67;;;1.10;;
16320;SDS011;8269;50.990;4.494;2022-10-15T13:33:29;6.25;;;1.20;;
16320;SDS011;8269;50.990;4.494;2022-10-15T13:35:55;2.42;;;1.05;;
16320;SDS011;8269;50.990;4.494;2022-10-15T13:38:28;4.15;;;1.00;;
16320;SDS011;8269;50.990;4.494;2022-10-15T13:40:54;2.03;;;0.80;;
16320;SDS011;8269;50.990;4.494;2022-10-15T13:43:23;5.78;;;1.40;;
16320;SDS011;8269;50.990;4.494;2022-10-15T13:45:54;4.03;;;0.90;;
16320;SDS011;8269;50.990;4.494;2022-10-15T13:48:22;3.20;;;0.90;;
16320;SDS011;8269;50.990;4.494;2022-10-15T13:50:54;6.25;;;1.20;;
16320;SDS011;8269;50.990;4.494;2022-10-15T13:55:59;3.88;;;1.10;;
16320;SDS011;8269;50.990;4.494;2022-10-15T13:58:28;2.88;;;1.10;;
16320;SDS011;8269;50.990;4.494;2022-10-15T14:03:26;4.95;;;1.27;;
16320;SDS011;8269;50.990;4.494;2022-10-15T14:05:53;4.40;;;1.55;;
16320;SDS011;8269;50.990;4.494;2022-10-15T14:08:27;2.75;;;1.20;;
16320;SDS011;8269;50.990;4.494;2022-10-15T14:10:58;5.20;;;1.40;;
16320;SDS011;8269;50.990;4.494;2022-10-15T14:13:24;3.17;;;1.00;;
16320;SDS011;8269;50.990;4.494;2022-10-15T14:18:26;3.90;;;1.13;;
16320;SDS011;8269;50.990;4.494;2022-10-15T14:20:58;3.05;;;1.02;;
16320;SDS011;8269;50.990;4.494;2022-10-15T14:23:24;4.07;;;1.00;;
16320;SDS011;8269;50.990;4.494;2022-10-15T14:25:52;3.00;;;1.08;;
16320;SDS011;8269;50.990;4.494;2022-10-15T14:28:20;5.63;;;1.10;;
16320;SDS011;8269;50.990;4.494;2022-10-15T14:30:47;5.78;;;1.27;;
16320;SDS011;8269;50.990;4.494;2022-10-15T14:38:37;4.63;;;1.30;;
16320;SDS011;8269;50.990;4.494;2022-10-15T14:41:05;1.60;;;0.70;;
16320;SDS011;8269;50.990;4.494;2022-10-15T14:43:43;4.70;;;0.98;;
16320;SDS011;8269;50.990;4.494;2022-10-15T14:46:12;5.15;;;1.25;;
16320;SDS011;8269;50.990;4.494;2022-10-15T14:48:41;3.80;;;1.30;;
16320;SDS011;8269;50.990;4.494;2022-10-15T14:51:13;4.68;;;1.42;;
16320;SDS011;8269;50.990;4.494;2022-10-15T14:53:46;3.33;;;1.10;;
16320;SDS011;8269;50.990;4.494;2022-10-15T14:56:16;5.90;;;1.65;;
16320;SDS011;8269;50.990;4.494;2022-10-15T14:58:45;3.00;;;1.00;;
16320;SDS011;8269;50.990;4.494;2022-10-15T15:01:21;3.88;;;1.20;;
16320;SDS011;8269;50.990;4.494;2022-10-15T15:03:49;3.50;;;0.90;;
16320;SDS011;8269;50.990;4.494;2022-10-15T15:06:19;3.63;;;1.05;;
16320;SDS011;8269;50.990;4.494;2022-10-15T15:08:45;4.47;;;1.45;;
16320;SDS011;8269;50.990;4.494;2022-10-15T15:11:12;3.20;;;1.10;;
16320;SDS011;8269;50.990;4.494;2022-10-15T15:13:40;3.95;;;1.33;;
16320;SDS011;8269;50.990;4.494;2022-10-15T15:16:08;5.18;;;1.35;;
16320;SDS011;8269;50.990;4.494;2022-10-15T15:18:36;3.63;;;1.20;;
16320;SDS011;8269;50.990;4.494;2022-10-15T15:21:03;4.00;;;1.10;;
16320;SDS011;8269;50.990;4.494;2022-10-15T15:23:31;2.97;;;1.10;;
16320;SDS011;8269;50.990;4.494;2022-10-15T15:25:58;5.53;;;1.35;;
16320;SDS011;8269;50.990;4.494;2022-10-15T15:28:24;4.22;;;1.30;;
16320;SDS011;8269;50.990;4.494;2022-10-15T15:30:58;4.80;;;1.48;;
16320;SDS011;8269;50.990;4.494;2022-10-15T15:33:26;7.90;;;1.70;;
16320;SDS011;8269;50.990;4.494;2022-10-15T15:38:38;6.35;;;1.35;;
16320;SDS011;8269;50.990;4.494;2022-10-15T15:43:39;5.53;;;1.13;;
16320;SDS011;8269;50.990;4.494;2022-10-15T15:46:05;4.47;;;1.45;;
16320;SDS011;8269;50.990;4.494;2022-10-15T15:48:32;7.90;;;1.42;;
16320;SDS011;8269;50.990;4.494;2022-10-15T15:50:58;5.18;;;1.42;;
16320;SDS011;8269;50.990;4.494;2022-10-15T15:53:27;3.30;;;1.50;;
16320;SDS011;8269;50.990;4.494;2022-10-15T15:58:25;7.88;;;1.45;;
16320;SDS011;8269;50.990;4.494;2022-10-15T16:00:50;5.65;;;1.30;;
16320;SDS011;8269;50.990;4.494;2022-10-15T16:03:16;7.45;;;1.98;;
16320;SDS011;8269;50.990;4.494;2022-10-15T16:05:41;6.10;;;1.50;;
16320;SDS011;8269;50.990;4.494;2022-10-15T16:08:07;4.50;;;1.42;;
16320;SDS011;8269;50.990;4.494;2022-10-15T16:10:34;4.72;;;1.20;;
16320;SDS011;8269;50.990;4.494;2022-10-15T16:13:00;6.00;;;1.50;;
16320;SDS011;8269;50.990;4.494;2022-10-15T16:15:26;4.38;;;1.13;;
16320;SDS011;8269;50.990;4.494;2022-10-15T16:17:52;5.95;;;1.55;;
16320;SDS011;8269;50.990;4.494;2022-10-15T16:20:18;6.03;;;1.30;;
16320;SDS011;8269;50.990;4.494;2022-10-15T16:22:47;6.97;;;1.80;;
16320;SDS011;8269;50.990;4.494;2022-10-15T16:25:14;5.18;;;1.50;;
16320;SDS011;8269;50.990;4.494;2022-10-15T16:27:39;4.60;;;1.38;;
16320;SDS011;8269;50.990;4.494;2022-10-15T16:30:05;6.25;;;1.45;;
16320;SDS011;8269;50.990;4.494;2022-10-15T16:32:31;4.20;;;1.30;;
16320;SDS011;8269;50.990;4.494;2022-10-15T16:34:57;4.05;;;1.20;;
16320;SDS011;8269;50.990;4.494;2022-10-15T16:37:22;8.13;;;1.65;;
16320;SDS011;8269;50.990;4.494;2022-10-15T16:39:48;5.97;;;1.55;;
16320;SDS011;8269;50.990;4.494;2022-10-15T16:42:13;5.07;;;1.45;;
16320;SDS011;8269;50.990;4.494;2022-10-15T16:44:39;7.23;;;1.60;;
16320;SDS011;8269;50.990;4.494;2022-10-15T16:47:05;4.22;;;1.50;;
16320;SDS011;8269;50.990;4.494;2022-10-15T16:49:30;4.72;;;1.38;;
16320;SDS011;8269;50.990;4.494;2022-10-15T16:51:56;7.70;;;1.90;;
16320;SDS011;8269;50.990;4.494;2022-10-15T16:54:21;8.10;;;1.80;;
16320;SDS011;8269;50.990;4.494;2022-10-15T16:56:48;5.32;;;1.60;;
16320;SDS011;8269;50.990;4.494;2022-10-15T16:59:15;5.80;;;1.67;;
16320;SDS011;8269;50.990;4.494;2022-10-15T17:01:41;6.95;;;1.85;;
16320;SDS011;8269;50.990;4.494;2022-10-15T17:04:07;4.63;;;1.67;;
16320;SDS011;8269;50.990;4.494;2022-10-15T17:06:32;4.80;;;1.27;;
16320;SDS011;8269;50.990;4.494;2022-10-15T17:08:59;4.38;;;1.50;;
16320;SDS011;8269;50.990;4.494;2022-10-15T17:11:29;6.00;;;1.80;;
16320;SDS011;8269;50.990;4.494;2022-10-15T17:14:00;5.97;;;1.80;;